Duncans Mills, CA (95430)

8:19 AM PST on December 07, 2016 (GMT -0800)
Russian River Meadows | | Change Station

Elev 36 ft 38.46 °N, 123.04 °W | Updated 12 seconds ago

Overcast
Overcast
35.1 °F
Feels Like 35 °F
N
0.2
Wind Variable Wind from ENE
Gusts 2.5 mph

Today
High -- | Low -- °F
--% Chance of Precip.
Yesterday
High -- | Low -- °F
Precip. -- in
Pressure 30.15 in
Visibility 10.0 miles
Clouds Mostly Cloudy 15000 ft
Overcast 25000 ft
Windchill 35 °F
Dew Point 32 °F
Humidity 89%
Rainfall 0.00 in
Snow Depth Not available.
7:16 AM 4:51 PM
First Quarter, 53% visible
METAR KSTS 071553Z 00000KT 10SM BKN150 OVC250 01/01 A3016 RMK AO2 SLP208 T00060006
Pressure 30.15 in
Visibility 10.0 miles
Clouds Mostly Cloudy 15000 ft
Overcast 25000 ft
Windchill 35 °F
Dew Point 32 °F
Humidity 89%
Rainfall 0.00 in
Snow Depth Not available.
7:16 AM 4:51 PM
First Quarter, 53% visible
METAR KSTS 071553Z 00000KT 10SM BKN150 OVC250 01/01 A3016 RMK AO2 SLP208 T00060006

10-Day Weather Forecast

Almanac

Astronomy

Dec. 07, 2016 Rise Set
Actual Time
Civil Twilight
Nautical Twilight
Astronomical Twilight
Moon
Length of Visible Light
Length of Day
Tomorrow will be .
, % of the Moon is Illuminated

Today's Extremes

State Highs State Lows

Community

WunderPhotos

Upload Photos

1,956,132 photos uploaded!

WunderBlog® & News

Nearby

Air Quality

  Air Quality AQ Index Pollutant
Not available.

Snow Depth

Station Depth Elevation

Earthquake Activity

City Distance Mag. Time & Date
Minimum magnitude displayed is 2.5.

Coastal Water Temperatures

Place Temperature

Stations

Nearby Weather Stations

Station Location Temp. Windchill Dew Point Humidity Wind Precip. Elev Updated Type
                   

Watches & Warnings

There are currently no watches in effect.